createdAt,value
2016-08-25T00:00:48.125Z,22.14
2016-08-25T00:01:42.352Z,22.15
2016-08-25T00:02:44.988Z,22.14
2016-08-25T00:03:32.838Z,22.14
2016-08-25T00:04:46.680Z,22.14
2016-08-25T00:05:46.806Z,22.14
2016-08-25T00:10:40.413Z,22.14
2016-08-25T00:14:14.950Z,22.14
2016-08-25T00:15:57.469Z,22.14
2016-08-25T00:17:45.331Z,22.13
2016-08-25T00:18:53.128Z,22.68
2016-08-25T00:19:37.370Z,22.75
2016-08-25T00:19:37.409Z,22.14
2016-08-25T00:20:29.142Z,22.76
2016-08-25T00:21:26.873Z,22.77
2016-08-25T00:22:26.039Z,22.42
2016-08-25T00:23:25.203Z,22.24
2016-08-25T00:24:24.557Z,22.20
2016-08-25T00:25:23.191Z,22.17
2016-08-25T00:26:29.046Z,22.15
2016-08-25T00:27:29.282Z,22.18
2016-08-25T00:28:27.282Z,22.14
2016-08-25T00:29:26.409Z,22.14
2016-08-25T00:30:25.305Z,22.15
2016-08-25T00:31:32.998Z,22.13
2016-08-25T00:34:50.776Z,22.13
2016-08-25T00:35:40.806Z,22.12
2016-08-25T00:36:41.600Z,22.13
2016-08-25T00:37:45.451Z,22.11
2016-08-25T00:38:44.200Z,22.12
2016-08-25T00:39:36.141Z,22.12
2016-08-25T00:42:13.275Z,22.11
2016-08-25T00:44:30.407Z,22.11
2016-08-25T00:45:23.969Z,22.11
2016-08-25T00:45:28.593Z,22.16
2016-08-25T00:47:55.215Z,22.11
2016-08-25T00:49:54.958Z,22.09
2016-08-25T00:50:44.726Z,22.11
2016-08-25T00:52:34.791Z,22.11
2016-08-25T00:53:05.521Z,22.11
2016-08-25T00:54:34.497Z,22.10
2016-08-25T00:55:12.999Z,22.11
2016-08-25T00:55:32.710Z,22.11
2016-08-25T00:56:15.839Z,22.10
2016-08-25T00:56:59.774Z,22.11
2016-08-25T00:58:57.851Z,22.09
2016-08-25T00:59:40.906Z,22.10
2016-08-25T01:00:42.177Z,22.10
2016-08-25T01:04:30.246Z,22.10
2016-08-25T01:05:16.901Z,22.09
2016-08-25T01:05:35.117Z,22.10
2016-08-25T01:07:52.022Z,22.09
2016-08-25T01:09:00.809Z,22.09
2016-08-25T01:10:00.393Z,22.13
2016-08-25T01:11:28.315Z,22.10
2016-08-25T01:12:35.461Z,22.09
2016-08-25T01:13:22.111Z,22.09
2016-08-25T01:14:17.869Z,22.09
2016-08-25T01:16:04.116Z,22.08
2016-08-25T01:17:38.829Z,22.09
2016-08-25T01:19:11.776Z,22.09
2016-08-25T01:20:59.862Z,22.07
2016-08-25T01:23:04.170Z,22.09
2016-08-25T01:24:12.312Z,22.06
2016-08-25T01:25:13.120Z,22.09
2016-08-25T01:25:34.982Z,22.08
2016-08-25T01:26:35.260Z,22.06
2016-08-25T01:28:51.526Z,22.08
2016-08-25T01:30:15.506Z,22.09
2016-08-25T01:31:38.069Z,22.08
2016-08-25T01:31:50.724Z,22.08
2016-08-25T01:34:52.815Z,22.06
2016-08-25T01:36:24.877Z,22.08
2016-08-25T01:39:02.061Z,22.16
2016-08-25T01:39:12.655Z,22.62
2016-08-25T01:39:49.149Z,22.67
2016-08-25T01:40:50.441Z,22.72
2016-08-25T01:41:39.989Z,22.72
2016-08-25T01:42:35.943Z,22.72
2016-08-25T01:43:52.794Z,22.73
2016-08-25T01:44:47.927Z,22.20
2016-08-25T01:45:45.455Z,22.13
2016-08-25T01:46:55.490Z,22.11
2016-08-25T01:47:58.901Z,22.10
2016-08-25T01:48:49.591Z,22.09
2016-08-25T01:50:36.061Z,22.07
2016-08-25T01:51:39.066Z,22.08
2016-08-25T01:52:39.317Z,22.08
2016-08-25T01:53:38.327Z,22.07
2016-08-25T01:55:29.052Z,22.06
2016-08-25T01:55:46.316Z,22.07
2016-08-25T01:58:49.177Z,22.05
2016-08-25T01:59:21.692Z,22.05
2016-08-25T01:59:44.181Z,22.07
2016-08-25T02:01:47.596Z,22.05
2016-08-25T02:02:41.283Z,22.05
2016-08-25T02:02:57.847Z,22.06
2016-08-25T02:03:50.132Z,22.05
2016-08-25T02:05:53.991Z,22.05
2016-08-25T02:06:53.479Z,22.05
2016-08-25T02:07:50.333Z,22.04
2016-08-25T02:08:44.473Z,22.05
2016-08-25T02:10:47.894Z,22.05
2016-08-25T02:11:38.978Z,22.05
2016-08-25T02:11:58.558Z,22.05
2016-08-25T02:12:44.413Z,22.05
2016-08-25T02:15:52.904Z,22.04
2016-08-25T02:16:49.939Z,22.05
2016-08-25T02:17:47.217Z,22.05
2016-08-25T02:18:48.903Z,22.05
2016-08-25T02:21:36.324Z,22.05
2016-08-25T02:22:51.412Z,22.05
2016-08-25T02:23:14.923Z,22.04
2016-08-25T02:23:15.065Z,22.03
2016-08-25T02:24:44.822Z,22.04
2016-08-25T02:25:50.076Z,22.04
2016-08-25T02:27:00.073Z,22.04
2016-08-25T02:28:26.581Z,22.02
2016-08-25T02:28:52.769Z,22.02
2016-08-25T02:29:56.061Z,22.05
2016-08-25T02:30:51.717Z,22.03
2016-08-25T02:31:48.049Z,22.04
2016-08-25T02:32:42.188Z,22.04
2016-08-25T02:33:48.376Z,22.03
2016-08-25T02:34:58.041Z,22.05
2016-08-25T02:36:50.347Z,22.04
2016-08-25T02:37:50.098Z,22.03
2016-08-25T02:39:00.509Z,22.04
2016-08-25T02:40:41.725Z,22.03
2016-08-25T02:43:04.663Z,22.04
2016-08-25T02:44:09.746Z,22.04
2016-08-25T02:44:48.978Z,21.99
2016-08-25T02:45:51.572Z,22.04
2016-08-25T02:47:18.627Z,22.03
2016-08-25T02:50:53.093Z,22.03
2016-08-25T02:53:57.353Z,22.03
2016-08-25T02:54:59.447Z,22.04
2016-08-25T02:56:23.975Z,22.03
2016-08-25T02:56:55.727Z,22.03
2016-08-25T02:58:35.416Z,22.05
2016-08-25T02:59:00.474Z,22.04
2016-08-25T03:00:38.200Z,22.03
2016-08-25T03:01:29.371Z,22.03
2016-08-25T03:01:44.215Z,22.03
2016-08-25T03:04:57.637Z,22.03
2016-08-25T03:05:20.829Z,22.03
2016-08-25T03:07:54.257Z,22.02
2016-08-25T03:08:58.262Z,22.01
2016-08-25T03:09:52.498Z,22.03
2016-08-25T03:10:53.682Z,22.02
2016-08-25T03:11:45.234Z,22.02
2016-08-25T03:12:51.537Z,22.02
2016-08-25T03:14:22.707Z,22.09
2016-08-25T03:16:18.049Z,22.02
2016-08-25T03:17:48.663Z,22.02
2016-08-25T03:19:04.189Z,22.02
2016-08-25T03:19:51.131Z,22.02
2016-08-25T03:20:40.852Z,22.02
2016-08-25T03:22:17.616Z,22.01
2016-08-25T03:24:49.040Z,22.02
2016-08-25T03:24:56.441Z,22.02
2016-08-25T03:25:29.593Z,22.01
2016-08-25T03:25:29.666Z,22.01
2016-08-25T03:27:17.249Z,22.01
2016-08-25T03:28:35.482Z,22.01
2016-08-25T03:29:01.469Z,22.01
2016-08-25T03:29:36.265Z,22.05
2016-08-25T03:32:44.016Z,22.06
2016-08-25T03:32:50.113Z,22.03
2016-08-25T03:33:45.218Z,22.00
2016-08-25T03:35:52.240Z,22.01
2016-08-25T03:36:54.109Z,22.01
2016-08-25T03:37:59.203Z,22.00
2016-08-25T03:38:36.350Z,21.98
2016-08-25T03:39:31.226Z,21.99
2016-08-25T03:40:34.012Z,22.00
2016-08-25T03:41:37.264Z,21.98
2016-08-25T03:42:43.670Z,21.99
2016-08-25T03:46:22.217Z,22.01
2016-08-25T03:46:55.593Z,22.00
2016-08-25T03:47:36.301Z,21.99
2016-08-25T03:49:56.181Z,21.99
2016-08-25T03:53:43.136Z,21.96
2016-08-25T03:54:58.124Z,21.98
2016-08-25T03:55:00.428Z,22.03
2016-08-25T03:55:42.369Z,21.99
2016-08-25T03:59:09.270Z,21.99
2016-08-25T03:59:33.900Z,21.96
2016-08-25T04:00:59.021Z,21.98
2016-08-25T04:02:00.327Z,21.97
2016-08-25T04:04:09.831Z,21.98
2016-08-25T04:06:43.935Z,21.97
2016-08-25T04:07:54.864Z,21.99
2016-08-25T04:08:55.847Z,21.98
2016-08-25T04:11:01.628Z,21.97
2016-08-25T04:11:18.024Z,21.98
2016-08-25T04:11:59.230Z,21.98
2016-08-25T04:13:51.203Z,21.98
2016-08-25T04:14:40.632Z,21.98
2016-08-25T04:15:00.358Z,21.96
2016-08-25T04:16:06.900Z,21.97
2016-08-25T04:17:04.142Z,21.97
2016-08-25T04:18:12.901Z,21.96
2016-08-25T04:19:42.170Z,21.97
2016-08-25T04:20:44.173Z,21.96
2016-08-25T04:22:03.959Z,21.97
2016-08-25T04:22:44.807Z,21.97
2016-08-25T04:23:27.120Z,21.97
2016-08-25T04:24:54.237Z,21.97
2016-08-25T04:26:37.358Z,21.97
2016-08-25T04:28:35.674Z,21.96
2016-08-25T04:29:40.047Z,21.96
2016-08-25T04:31:23.129Z,21.96
2016-08-25T04:31:41.814Z,21.94
2016-08-25T04:32:57.961Z,21.96
2016-08-25T04:33:44.592Z,21.96
2016-08-25T04:34:53.017Z,21.96
2016-08-25T04:36:27.706Z,21.96
2016-08-25T04:38:18.276Z,21.96
2016-08-25T04:40:43.969Z,21.95
2016-08-25T04:44:03.923Z,21.95
2016-08-25T04:45:46.601Z,21.94
2016-08-25T04:46:38.723Z,21.97
2016-08-25T04:47:50.392Z,21.95
2016-08-25T04:48:40.750Z,21.95
2016-08-25T04:50:02.370Z,21.96
2016-08-25T04:50:43.548Z,22.03
2016-08-25T04:51:51.549Z,21.94
2016-08-25T04:52:43.156Z,21.94
2016-08-25T04:54:16.133Z,21.94
2016-08-25T04:55:34.971Z,21.99
2016-08-25T04:56:35.587Z,21.95
2016-08-25T04:57:59.086Z,21.94
2016-08-25T04:59:07.413Z,21.95
2016-08-25T05:02:35.898Z,21.95
2016-08-25T05:03:45.765Z,21.94
2016-08-25T05:05:36.316Z,21.95
2016-08-25T05:07:15.521Z,21.91
2016-08-25T05:08:00.082Z,21.95
2016-08-25T05:09:28.930Z,21.92
2016-08-25T05:10:07.284Z,21.95
2016-08-25T05:10:49.284Z,21.94
2016-08-25T05:11:41.489Z,21.94
2016-08-25T05:11:52.384Z,21.94
2016-08-25T05:12:49.427Z,21.94
2016-08-25T05:13:56.029Z,21.95
2016-08-25T05:14:49.981Z,21.95
2016-08-25T05:15:48.188Z,21.94
2016-08-25T05:16:40.310Z,21.94
2016-08-25T05:18:36.318Z,21.94
2016-08-25T05:20:23.670Z,21.94
2016-08-25T05:20:43.848Z,21.94
2016-08-25T05:20:54.072Z,21.92
2016-08-25T05:25:06.749Z,21.93
2016-08-25T05:25:46.516Z,21.95
2016-08-25T05:27:44.215Z,21.93
2016-08-25T05:28:52.220Z,21.92
2016-08-25T05:30:35.798Z,21.90
2016-08-25T05:31:49.757Z,21.92
2016-08-25T05:32:31.214Z,21.92
2016-08-25T05:33:33.404Z,21.93
2016-08-25T05:34:40.563Z,21.93
2016-08-25T05:35:14.549Z,21.90
2016-08-25T05:36:54.281Z,21.90
2016-08-25T05:38:00.691Z,21.93
2016-08-25T05:38:33.577Z,21.93
2016-08-25T05:38:59.192Z,21.91
2016-08-25T05:39:43.036Z,21.92
2016-08-25T05:40:34.517Z,21.92
2016-08-25T05:41:24.255Z,21.92
2016-08-25T05:42:23.195Z,21.92
2016-08-25T05:43:22.924Z,21.91
2016-08-25T05:44:28.690Z,21.92
2016-08-25T05:45:32.721Z,21.92
2016-08-25T05:46:27.456Z,21.92
2016-08-25T05:47:15.885Z,21.92
2016-08-25T05:48:34.620Z,21.91
2016-08-25T05:49:23.733Z,21.91
2016-08-25T05:50:29.100Z,21.91
2016-08-25T05:51:28.693Z,21.92
2016-08-25T05:52:33.140Z,21.92
2016-08-25T05:53:36.494Z,21.91
2016-08-25T05:54:20.774Z,21.90
2016-08-25T05:55:27.517Z,21.91
2016-08-25T05:56:26.273Z,21.91
2016-08-25T05:57:24.010Z,21.93
2016-08-25T05:58:30.024Z,21.91
2016-08-25T05:59:28.856Z,21.92
2016-08-25T06:00:28.803Z,21.92
2016-08-25T06:01:29.471Z,21.93
2016-08-25T06:02:25.665Z,21.92
2016-08-25T06:03:25.765Z,21.92
2016-08-25T06:04:27.769Z,21.92
2016-08-25T06:05:23.764Z,21.93
2016-08-25T06:06:30.218Z,21.92
2016-08-25T06:07:29.619Z,21.92
2016-08-25T06:08:29.636Z,21.92
2016-08-25T06:09:36.484Z,21.92
2016-08-25T06:10:25.981Z,21.92
2016-08-25T06:11:21.339Z,21.93
2016-08-25T06:12:29.816Z,21.93
2016-08-25T06:13:28.875Z,21.93
2016-08-25T06:14:27.463Z,21.93
2016-08-25T06:15:45.683Z,21.92
2016-08-25T06:17:04.157Z,21.93
2016-08-25T06:18:31.483Z,21.93
2016-08-25T06:19:35.357Z,21.94
2016-08-25T06:20:52.755Z,21.95
2016-08-25T06:21:47.861Z,21.97
2016-08-25T06:22:57.919Z,21.94
2016-08-25T06:24:24.015Z,21.94
2016-08-25T06:25:51.555Z,21.94
2016-08-25T06:26:59.853Z,21.93
2016-08-25T06:28:23.423Z,21.94
2016-08-25T06:29:44.054Z,21.93
2016-08-25T06:29:59.785Z,21.92
2016-08-25T06:30:51.311Z,21.92
2016-08-25T06:31:51.907Z,21.93
2016-08-25T06:32:35.082Z,21.92
2016-08-25T06:33:35.942Z,21.94
2016-08-25T06:35:44.303Z,21.93
2016-08-25T06:36:45.398Z,21.93
2016-08-25T06:37:36.949Z,21.94
2016-08-25T06:38:40.487Z,21.94
2016-08-25T06:40:51.319Z,21.94
2016-08-25T06:41:50.416Z,21.94
2016-08-25T06:42:46.357Z,21.97
2016-08-25T06:43:53.897Z,21.94
2016-08-25T06:45:17.270Z,21.94
2016-08-25T06:46:17.804Z,21.94
2016-08-25T06:47:04.208Z,21.94
2016-08-25T06:47:44.827Z,21.95
2016-08-25T06:48:38.456Z,21.92
2016-08-25T06:49:07.114Z,21.93
2016-08-25T06:50:27.642Z,21.94
2016-08-25T06:51:53.569Z,21.95
2016-08-25T06:52:12.231Z,21.95
2016-08-25T06:52:13.107Z,21.95
2016-08-25T06:56:48.441Z,21.94
2016-08-25T06:56:59.363Z,21.95
2016-08-25T06:57:48.302Z,21.95
2016-08-25T06:58:30.561Z,21.96
2016-08-25T06:59:47.507Z,21.94
2016-08-25T07:00:55.634Z,21.96
2016-08-25T07:01:38.684Z,21.97
2016-08-25T07:03:44.474Z,21.96
2016-08-25T07:04:53.948Z,21.99
2016-08-25T07:05:41.611Z,21.99
2016-08-25T07:06:46.762Z,22.01
2016-08-25T07:07:44.309Z,22.02
2016-08-25T07:09:28.496Z,21.89
2016-08-25T07:10:27.241Z,21.81
2016-08-25T07:11:27.378Z,21.76
2016-08-25T07:12:25.514Z,21.73
2016-08-25T07:14:37.436Z,21.66
2016-08-25T07:15:55.595Z,21.56
2016-08-25T07:16:43.564Z,21.53
2016-08-25T07:18:11.110Z,21.55
2016-08-25T07:18:44.514Z,21.53
2016-08-25T07:20:01.038Z,21.52
2016-08-25T07:20:46.728Z,21.51
2016-08-25T07:22:38.297Z,21.48
2016-08-25T07:23:33.804Z,21.49
2016-08-25T07:24:34.334Z,21.47
2016-08-25T07:25:44.307Z,21.45
2016-08-25T07:26:35.424Z,21.45
2016-08-25T07:27:51.792Z,21.49
2016-08-25T07:28:45.000Z,22.01
2016-08-25T07:29:34.214Z,21.71
2016-08-25T07:30:43.052Z,21.55
2016-08-25T07:31:44.775Z,21.55
2016-08-25T07:32:55.964Z,21.53
2016-08-25T07:34:41.297Z,21.49
2016-08-25T07:35:37.641Z,21.50
2016-08-25T07:36:36.836Z,21.50
2016-08-25T07:37:45.204Z,21.53
2016-08-25T07:38:47.319Z,21.53
2016-08-25T07:39:42.138Z,21.54
2016-08-25T07:40:34.473Z,21.53
2016-08-25T07:41:33.956Z,21.54
2016-08-25T07:42:41.890Z,21.54
2016-08-25T07:43:34.262Z,21.53
2016-08-25T07:45:50.857Z,21.57
2016-08-25T07:46:44.166Z,21.59
2016-08-25T07:47:29.829Z,21.65
2016-08-25T07:48:50.376Z,21.73
2016-08-25T07:49:31.670Z,21.76
2016-08-25T07:51:40.987Z,21.80
2016-08-25T07:52:31.847Z,21.82
2016-08-25T07:52:46.536Z,21.84
2016-08-25T07:53:34.802Z,21.86
2016-08-25T07:54:44.834Z,21.88
2016-08-25T07:55:47.392Z,21.89
2016-08-25T07:57:28.408Z,21.90
2016-08-25T07:58:50.740Z,21.92
2016-08-25T08:01:01.584Z,21.95
2016-08-25T08:04:35.877Z,21.96
2016-08-25T08:05:44.535Z,21.97
2016-08-25T08:06:56.350Z,22.05
2016-08-25T08:07:56.427Z,22.52
2016-08-25T08:08:42.209Z,22.05
2016-08-25T08:09:50.273Z,22.01
2016-08-25T08:12:39.828Z,22.01
2016-08-25T08:14:58.171Z,22.01
2016-08-25T08:16:38.116Z,22.03
2016-08-25T08:16:57.850Z,22.01
2016-08-25T08:19:00.894Z,22.01
2016-08-25T08:19:26.547Z,22.03
2016-08-25T08:20:42.130Z,22.02
2016-08-25T08:20:59.296Z,22.03
2016-08-25T08:22:03.149Z,22.04
2016-08-25T08:23:57.282Z,22.04
2016-08-25T08:24:42.425Z,22.03
2016-08-25T08:25:43.634Z,22.03
2016-08-25T08:26:35.688Z,22.06
2016-08-25T08:28:41.578Z,22.05
2016-08-25T08:29:49.838Z,22.05
2016-08-25T08:29:49.971Z,22.06
2016-08-25T08:35:01.365Z,22.08
2016-08-25T08:35:45.732Z,22.08
2016-08-25T08:36:54.123Z,22.08
2016-08-25T08:37:58.407Z,22.08
2016-08-25T08:38:47.486Z,22.09
2016-08-25T08:39:34.708Z,22.08
2016-08-25T08:40:59.279Z,22.08
2016-08-25T08:41:43.770Z,22.09
2016-08-25T08:43:28.453Z,22.06
2016-08-25T08:44:00.681Z,22.10
2016-08-25T08:45:20.183Z,22.10
2016-08-25T08:46:46.245Z,22.10
2016-08-25T08:48:46.290Z,22.13
2016-08-25T08:50:01.013Z,22.11
2016-08-25T08:50:56.891Z,22.09
2016-08-25T08:51:47.464Z,22.11
2016-08-25T08:53:31.050Z,22.11
2016-08-25T08:53:48.506Z,22.11
2016-08-25T08:55:43.021Z,22.11
2016-08-25T08:56:51.685Z,22.11
2016-08-25T08:57:54.750Z,22.13
2016-08-25T08:59:32.441Z,22.12
2016-08-25T09:01:25.067Z,22.12
2016-08-25T09:01:57.199Z,22.13
2016-08-25T09:03:29.890Z,22.11
2016-08-25T09:04:17.901Z,22.13
2016-08-25T09:05:42.957Z,22.14
2016-08-25T09:06:55.974Z,22.12
2016-08-25T09:06:55.991Z,22.13
2016-08-25T09:07:42.852Z,22.14
2016-08-25T09:08:42.110Z,22.13
2016-08-25T09:10:51.877Z,22.13
2016-08-25T09:11:58.833Z,22.14
2016-08-25T09:13:58.311Z,22.14
2016-08-25T09:14:32.797Z,22.15
2016-08-25T09:15:47.381Z,22.15
2016-08-25T09:15:48.822Z,22.14
2016-08-25T09:16:47.005Z,22.14
2016-08-25T09:18:36.306Z,22.15
2016-08-25T09:20:35.394Z,22.15
2016-08-25T09:21:17.715Z,22.15
2016-08-25T09:22:53.576Z,22.15
2016-08-25T09:23:59.712Z,22.16
2016-08-25T09:24:28.583Z,22.13
2016-08-25T09:25:42.588Z,22.16
2016-08-25T09:26:42.928Z,22.15
2016-08-25T09:28:32.919Z,22.13
2016-08-25T09:29:32.874Z,22.12
2016-08-25T09:30:55.783Z,22.16
2016-08-25T09:31:35.159Z,22.17
2016-08-25T09:32:56.682Z,22.16
2016-08-25T09:33:40.887Z,22.17
2016-08-25T09:34:47.468Z,22.17
2016-08-25T09:35:37.930Z,22.20
2016-08-25T09:36:32.472Z,22.20
2016-08-25T09:37:35.563Z,22.21
2016-08-25T09:38:40.664Z,22.20
2016-08-25T09:39:31.156Z,22.20
2016-08-25T09:40:35.658Z,22.20
2016-08-25T09:41:34.424Z,22.21
2016-08-25T09:42:38.217Z,22.21
2016-08-25T09:43:37.301Z,22.21
2016-08-25T09:44:35.481Z,22.22
2016-08-25T09:45:35.882Z,22.21
2016-08-25T09:46:30.253Z,22.22
2016-08-25T09:47:34.174Z,22.23
2016-08-25T09:48:26.061Z,22.23
2016-08-25T09:49:29.283Z,22.23
2016-08-25T09:50:24.421Z,22.23
2016-08-25T09:51:22.066Z,22.23
2016-08-25T09:52:29.608Z,22.24
2016-08-25T09:53:29.793Z,22.23
2016-08-25T09:54:34.706Z,22.26
2016-08-25T09:55:25.475Z,22.24
2016-08-25T09:56:26.093Z,22.24
2016-08-25T09:57:28.140Z,22.24
2016-08-25T09:58:23.357Z,22.24
2016-08-25T09:59:27.258Z,22.25
2016-08-25T10:00:27.510Z,22.23
2016-08-25T10:01:30.909Z,22.24
2016-08-25T10:02:15.702Z,22.78
2016-08-25T10:03:27.283Z,22.48
2016-08-25T10:04:36.747Z,22.34
2016-08-25T10:05:18.802Z,22.31
2016-08-25T10:06:23.359Z,22.29
2016-08-25T10:07:27.686Z,22.29
2016-08-25T10:08:29.287Z,22.35
2016-08-25T10:09:28.789Z,22.30
2016-08-25T10:10:29.388Z,22.30
2016-08-25T10:11:36.973Z,22.30
2016-08-25T10:12:23.423Z,22.31
2016-08-25T10:13:24.166Z,22.30
2016-08-25T10:14:23.988Z,22.32
2016-08-25T10:15:17.200Z,22.40
2016-08-25T10:16:28.289Z,22.34
2016-08-25T10:17:25.733Z,22.31
2016-08-25T10:18:28.221Z,22.31
2016-08-25T10:19:25.894Z,22.31
2016-08-25T10:20:26.908Z,22.32
2016-08-25T10:21:24.103Z,22.32
2016-08-25T10:22:42.182Z,22.31
2016-08-25T10:23:26.790Z,22.30
2016-08-25T10:24:55.850Z,22.31
2016-08-25T10:25:36.044Z,22.31
2016-08-25T10:26:34.300Z,22.31
2016-08-25T10:28:40.386Z,22.31
2016-08-25T10:29:38.089Z,22.29
2016-08-25T10:30:31.395Z,22.26
2016-08-25T10:31:51.067Z,22.30
2016-08-25T10:33:17.996Z,22.31
2016-08-25T10:33:42.483Z,22.31
2016-08-25T10:35:43.405Z,22.28
2016-08-25T10:36:23.514Z,22.31
2016-08-25T10:37:01.502Z,22.31
2016-08-25T10:40:06.825Z,22.31
2016-08-25T10:41:45.232Z,22.32
2016-08-25T10:44:50.616Z,22.33
2016-08-25T10:46:35.154Z,22.33
2016-08-25T10:47:14.039Z,22.32
2016-08-25T10:48:41.196Z,22.32
2016-08-25T10:49:34.586Z,22.33
2016-08-25T10:50:32.218Z,22.33
2016-08-25T10:51:50.726Z,22.33
2016-08-25T10:52:59.240Z,22.34
2016-08-25T10:53:40.923Z,22.33
2016-08-25T10:54:49.598Z,22.34
2016-08-25T10:55:51.166Z,22.34
2016-08-25T10:56:52.990Z,22.34
2016-08-25T10:57:43.049Z,22.34
2016-08-25T10:59:26.149Z,22.34
2016-08-25T10:59:43.455Z,22.34
2016-08-25T11:00:38.203Z,22.35
2016-08-25T11:02:02.895Z,22.34
2016-08-25T11:03:31.362Z,22.34
2016-08-25T11:04:47.453Z,22.33
2016-08-25T11:05:45.568Z,22.34
2016-08-25T11:06:45.825Z,22.34
2016-08-25T11:09:42.614Z,22.36
2016-08-25T11:10:37.563Z,22.36
2016-08-25T11:11:33.247Z,22.36
2016-08-25T11:12:38.126Z,22.36
2016-08-25T11:13:32.937Z,22.36
2016-08-25T11:14:44.657Z,22.36
2016-08-25T11:15:49.821Z,22.36
2016-08-25T11:16:28.819Z,22.37
2016-08-25T11:18:38.290Z,22.37
2016-08-25T11:18:51.181Z,22.36
2016-08-25T11:19:43.836Z,22.36
2016-08-25T11:20:44.879Z,22.37
2016-08-25T11:21:54.986Z,22.36
2016-08-25T11:22:32.993Z,22.36
2016-08-25T11:23:36.289Z,22.37
2016-08-25T11:24:36.786Z,22.37
2016-08-25T11:25:35.271Z,22.37
2016-08-25T11:26:49.609Z,22.37
2016-08-25T11:27:34.831Z,22.37
2016-08-25T11:29:38.647Z,22.37
2016-08-25T11:30:36.351Z,22.37
2016-08-25T11:32:01.001Z,22.40
2016-08-25T11:32:50.798Z,22.37
2016-08-25T11:33:52.438Z,22.36
2016-08-25T11:34:53.376Z,22.37
2016-08-25T11:35:43.528Z,22.37
2016-08-25T11:37:37.078Z,22.38
2016-08-25T11:39:38.994Z,22.39
2016-08-25T11:40:40.036Z,22.37
2016-08-25T11:41:45.302Z,22.37
2016-08-25T11:43:30.437Z,22.37
2016-08-25T11:44:02.555Z,22.38
2016-08-25T11:46:55.864Z,22.38
2016-08-25T11:50:50.415Z,22.38
2016-08-25T11:51:53.966Z,22.39
2016-08-25T11:52:44.754Z,22.37
2016-08-25T11:54:32.739Z,22.35
2016-08-25T11:55:33.729Z,22.34
2016-08-25T11:56:37.119Z,22.39
2016-08-25T11:57:42.212Z,22.40
2016-08-25T11:58:37.256Z,22.40
2016-08-25T12:00:30.413Z,22.39
2016-08-25T12:02:01.310Z,22.35
2016-08-25T12:02:37.209Z,22.39
2016-08-25T12:03:42.361Z,22.41
2016-08-25T12:04:31.124Z,22.41
2016-08-25T12:05:42.795Z,22.42
2016-08-25T12:06:50.001Z,22.42
2016-08-25T12:07:38.189Z,22.42
2016-08-25T12:08:32.507Z,22.43
2016-08-25T12:09:45.855Z,22.43
2016-08-25T12:10:39.016Z,22.43
2016-08-25T12:13:47.926Z,22.44
2016-08-25T12:14:48.469Z,22.45
2016-08-25T12:15:50.543Z,22.42
2016-08-25T12:17:05.164Z,22.43
2016-08-25T12:17:37.369Z,22.50
2016-08-25T12:18:38.373Z,22.46
2016-08-25T12:19:33.533Z,22.45
2016-08-25T12:20:54.109Z,22.45
2016-08-25T12:21:45.157Z,22.46
2016-08-25T12:22:34.979Z,22.46
2016-08-25T12:25:45.631Z,22.45
2016-08-25T12:26:50.204Z,22.45
2016-08-25T12:27:50.358Z,22.46
2016-08-25T12:29:51.200Z,22.43
2016-08-25T12:31:22.918Z,22.44
2016-08-25T12:31:41.943Z,22.45
2016-08-25T12:33:18.959Z,22.44
2016-08-25T12:33:41.416Z,22.44
2016-08-25T12:34:30.357Z,22.51
2016-08-25T12:35:50.189Z,22.45
2016-08-25T12:36:36.400Z,22.44
2016-08-25T12:37:40.125Z,22.44
2016-08-25T12:38:43.811Z,22.43
2016-08-25T12:39:44.040Z,22.44
2016-08-25T12:40:53.599Z,22.44
2016-08-25T12:42:29.252Z,22.43
2016-08-25T12:42:31.394Z,22.44
2016-08-25T12:43:37.276Z,22.44
2016-08-25T12:44:40.401Z,22.44
2016-08-25T12:45:40.119Z,22.43
2016-08-25T12:46:51.284Z,22.43
2016-08-25T12:47:42.184Z,22.43
2016-08-25T12:48:55.853Z,22.43
2016-08-25T12:50:40.118Z,22.43
2016-08-25T12:51:15.002Z,22.43
2016-08-25T12:52:33.387Z,22.43
2016-08-25T12:53:39.592Z,22.43
2016-08-25T12:54:38.861Z,22.43
2016-08-25T12:56:00.363Z,22.42
2016-08-25T12:56:58.629Z,22.42
2016-08-25T12:57:36.964Z,22.41
2016-08-25T12:58:35.414Z,22.43
2016-08-25T12:59:33.892Z,22.42
2016-08-25T13:00:34.160Z,22.43
2016-08-25T13:01:41.719Z,22.43
2016-08-25T13:02:35.478Z,22.42
2016-08-25T13:03:34.074Z,22.42
2016-08-25T13:04:35.867Z,22.42
2016-08-25T13:05:46.122Z,22.42
2016-08-25T13:06:57.553Z,22.42
2016-08-25T13:07:29.722Z,22.42
2016-08-25T13:09:07.898Z,22.42
2016-08-25T13:09:35.332Z,22.42
2016-08-25T13:12:41.794Z,22.43
2016-08-25T13:13:36.446Z,22.43
2016-08-25T13:14:28.113Z,22.43
2016-08-25T13:15:39.637Z,22.43
2016-08-25T13:17:05.033Z,22.44
2016-08-25T13:17:48.433Z,22.44
2016-08-25T13:18:39.154Z,22.44
2016-08-25T13:19:29.506Z,22.45
2016-08-25T13:20:39.156Z,22.45
2016-08-25T13:21:45.258Z,22.45
2016-08-25T13:22:39.322Z,22.45
2016-08-25T13:23:43.744Z,22.46
2016-08-25T13:24:43.721Z,22.46
2016-08-25T13:25:33.298Z,22.46
2016-08-25T13:26:35.120Z,22.47
2016-08-25T13:27:43.122Z,22.47
2016-08-25T13:28:31.400Z,22.47
2016-08-25T13:29:39.430Z,22.46
2016-08-25T13:30:43.407Z,22.47
2016-08-25T13:31:40.181Z,22.47
2016-08-25T13:32:32.499Z,22.49
2016-08-25T13:33:47.960Z,22.48
2016-08-25T13:34:42.417Z,22.49
2016-08-25T13:35:36.647Z,22.49
2016-08-25T13:36:36.429Z,22.56
2016-08-25T13:37:32.074Z,22.49
2016-08-25T13:38:47.806Z,22.51
2016-08-25T13:39:37.527Z,22.50
2016-08-25T13:40:30.866Z,22.51
2016-08-25T13:41:34.172Z,22.51
2016-08-25T13:42:41.057Z,22.52
2016-08-25T13:43:34.277Z,22.53
2016-08-25T13:44:33.790Z,22.53
2016-08-25T13:45:34.390Z,22.53
2016-08-25T13:46:34.390Z,22.53
2016-08-25T13:47:40.765Z,22.53
2016-08-25T13:48:39.002Z,22.53
2016-08-25T13:49:37.385Z,22.53
2016-08-25T13:50:52.704Z,22.54
2016-08-25T13:51:33.780Z,22.55
2016-08-25T13:52:39.376Z,22.55
2016-08-25T13:53:40.168Z,22.55
2016-08-25T13:54:43.203Z,22.56
2016-08-25T13:55:41.613Z,22.56
2016-08-25T13:56:34.265Z,22.57
2016-08-25T13:57:40.436Z,22.57
2016-08-25T13:58:32.150Z,22.57
2016-08-25T13:59:37.238Z,22.58
2016-08-25T14:00:33.885Z,22.58
2016-08-25T14:01:33.859Z,22.59
2016-08-25T14:02:42.595Z,22.60
2016-08-25T14:03:30.616Z,22.61
2016-08-25T14:04:31.667Z,22.68
2016-08-25T14:05:39.272Z,22.64
2016-08-25T14:06:26.853Z,22.63
2016-08-25T14:07:38.971Z,22.64
2016-08-25T14:08:38.970Z,22.65
2016-08-25T14:09:33.625Z,22.68
2016-08-25T14:10:43.574Z,22.66
2016-08-25T14:11:45.172Z,22.65
2016-08-25T14:12:31.600Z,22.67
2016-08-25T14:13:28.429Z,22.67
2016-08-25T14:14:27.168Z,22.68
2016-08-25T14:15:26.565Z,22.69
2016-08-25T14:16:30.155Z,22.70
2016-08-25T14:17:29.807Z,23.20
2016-08-25T14:18:28.197Z,23.25
2016-08-25T14:19:21.870Z,23.26
2016-08-25T14:20:33.936Z,23.27
2016-08-25T14:21:19.589Z,23.26
2016-08-25T14:22:27.155Z,23.27
2016-08-25T14:23:29.409Z,22.73
2016-08-25T14:24:27.674Z,22.70
2016-08-25T14:25:27.725Z,22.67
2016-08-25T14:26:38.892Z,22.64
2016-08-25T14:27:29.654Z,22.64
2016-08-25T14:28:51.215Z,22.63
2016-08-25T14:29:31.675Z,22.62
2016-08-25T14:30:32.469Z,22.62
2016-08-25T14:31:40.325Z,22.60
2016-08-25T14:32:28.455Z,22.61
2016-08-25T14:33:23.308Z,22.59
2016-08-25T14:34:49.298Z,22.60
2016-08-25T14:35:37.216Z,22.59
2016-08-25T14:36:32.521Z,22.58
2016-08-25T14:37:35.983Z,22.58
2016-08-25T14:38:43.275Z,22.58
2016-08-25T14:39:49.635Z,22.58
2016-08-25T14:40:33.042Z,22.57
2016-08-25T14:41:58.535Z,22.58
2016-08-25T14:43:07.091Z,22.59
2016-08-25T14:43:30.936Z,22.62
2016-08-25T14:44:33.329Z,22.60
2016-08-25T14:45:29.886Z,22.61
2016-08-25T14:46:38.993Z,22.61
2016-08-25T14:47:16.776Z,22.61
2016-08-25T14:48:29.466Z,22.61
2016-08-25T14:49:32.147Z,22.60
2016-08-25T14:50:39.084Z,22.63
2016-08-25T14:51:33.524Z,22.72
2016-08-25T14:52:37.696Z,22.75
2016-08-25T14:53:50.568Z,22.68
2016-08-25T14:54:50.418Z,22.67
2016-08-25T14:55:44.211Z,22.66
2016-08-25T14:56:44.280Z,22.68
2016-08-25T14:57:37.531Z,22.68
2016-08-25T14:58:38.699Z,22.69
2016-08-25T14:59:34.735Z,22.69
2016-08-25T15:00:49.982Z,22.69
2016-08-25T15:01:38.860Z,22.69
2016-08-25T15:02:33.139Z,22.69
2016-08-25T15:03:40.523Z,22.70
2016-08-25T15:04:38.823Z,22.78